sensor_id;sensor_type;location;lat;lon;timestamp;pressure;altitude;pressure_sealevel;temperature;humidity
28167;BME280;15455;53.376;-6.262;2023-03-26T00:01:26;99851.84;;;5.21;100.00
28167;BME280;15455;53.376;-6.262;2023-03-26T00:04:14;99857.97;;;5.41;100.00
28167;BME280;15455;53.376;-6.262;2023-03-26T00:07:03;99851.97;;;5.48;100.00
28167;BME280;15455;53.376;-6.262;2023-03-26T00:09:49;99861.47;;;5.50;100.00
28167;BME280;15455;53.376;-6.262;2023-03-26T00:12:34;99860.63;;;5.59;100.00
28167;BME280;15455;53.376;-6.262;2023-03-26T00:15:20;99866.72;;;5.75;100.00
28167;BME280;15455;53.376;-6.262;2023-03-26T00:18:05;99869.34;;;5.97;100.00
28167;BME280;15455;53.376;-6.262;2023-03-26T00:20:53;99872.88;;;6.14;100.00
28167;BME280;15455;53.376;-6.262;2023-03-26T00:23:39;99877.19;;;6.29;100.00
28167;BME280;15455;53.376;-6.262;2023-03-26T00:26:26;99878.06;;;6.42;100.00
28167;BME280;15455;53.376;-6.262;2023-03-26T00:29:15;99872.88;;;6.47;100.00
28167;BME280;15455;53.376;-6.262;2023-03-26T00:32:01;99879.78;;;6.55;100.00
28167;BME280;15455;53.376;-6.262;2023-03-26T00:34:46;99890.19;;;6.63;100.00
28167;BME280;15455;53.376;-6.262;2023-03-26T00:37:32;99884.13;;;6.72;100.00
28167;BME280;15455;53.376;-6.262;2023-03-26T00:40:18;99880.66;;;6.74;100.00
28167;BME280;15455;53.376;-6.262;2023-03-26T00:43:03;99882.38;;;6.77;100.00
28167;BME280;15455;53.376;-6.262;2023-03-26T00:46:02;99894.47;;;6.83;100.00
28167;BME280;15455;53.376;-6.262;2023-03-26T00:48:48;99896.19;;;6.88;100.00
28167;BME280;15455;53.376;-6.262;2023-03-26T00:51:35;99898.78;;;6.93;100.00
28167;BME280;15455;53.376;-6.262;2023-03-26T00:54:21;99897.94;;;6.95;100.00
28167;BME280;15455;53.376;-6.262;2023-03-26T00:57:07;99894.47;;;6.98;100.00
28167;BME280;15455;53.376;-6.262;2023-03-26T00:59:55;99889.25;;;7.03;100.00
28167;BME280;15455;53.376;-6.262;2023-03-26T01:02:40;99896.19;;;7.07;100.00
28167;BME280;15455;53.376;-6.262;2023-03-26T01:11:29;99895.28;;;7.16;100.00
28167;BME280;15455;53.376;-6.262;2023-03-26T01:14:19;99895.28;;;7.16;100.00
28167;BME280;15455;53.376;-6.262;2023-03-26T01:17:06;99897.03;;;7.17;100.00
28167;BME280;15455;53.376;-6.262;2023-03-26T01:22:53;99903.06;;;7.20;100.00
28167;BME280;15455;53.376;-6.262;2023-03-26T01:25:47;99910.00;;;7.18;100.00
28167;BME280;15455;53.376;-6.262;2023-03-26T01:28:36;99905.66;;;7.16;100.00
28167;BME280;15455;53.376;-6.262;2023-03-26T01:31:38;99901.34;;;7.15;100.00
28167;BME280;15455;53.376;-6.262;2023-03-26T01:41:16;99918.63;;;7.23;100.00
28167;BME280;15455;53.376;-6.262;2023-03-26T01:47:00;99924.72;;;7.21;100.00
28167;BME280;15455;53.376;-6.262;2023-03-26T01:49:46;99919.50;;;7.13;100.00
28167;BME280;15455;53.376;-6.262;2023-03-26T01:52:32;99926.44;;;7.03;100.00
28167;BME280;15455;53.376;-6.262;2023-03-26T01:55:18;99925.59;;;7.03;100.00
28167;BME280;15455;53.376;-6.262;2023-03-26T02:01:16;99923.88;;;6.89;100.00
28167;BME280;15455;53.376;-6.262;2023-03-26T02:07:36;99922.16;;;6.68;100.00
28167;BME280;15455;53.376;-6.262;2023-03-26T02:10:27;99921.28;;;6.55;100.00
28167;BME280;15455;53.376;-6.262;2023-03-26T02:13:13;99922.13;;;6.45;100.00
28167;BME280;15455;53.376;-6.262;2023-03-26T02:16:01;99925.59;;;6.35;100.00
28167;BME280;15455;53.376;-6.262;2023-03-26T02:18:48;99930.72;;;6.16;100.00
28167;BME280;15455;53.376;-6.262;2023-03-26T02:21:35;99922.06;;;6.00;100.00
28167;BME280;15455;53.376;-6.262;2023-03-26T02:24:21;99924.59;;;5.91;100.00
28167;BME280;15455;53.376;-6.262;2023-03-26T02:27:12;99923.72;;;5.90;100.00
28167;BME280;15455;53.376;-6.262;2023-03-26T02:29:58;99929.78;;;5.89;100.00
28167;BME280;15455;53.376;-6.262;2023-03-26T02:32:43;99927.19;;;5.96;100.00
28167;BME280;15455;53.376;-6.262;2023-03-26T02:35:29;99930.72;;;6.02;100.00
28167;BME280;15455;53.376;-6.262;2023-03-26T02:38:18;99935.00;;;6.03;100.00
28167;BME280;15455;53.376;-6.262;2023-03-26T02:41:04;99940.22;;;6.11;100.00
28167;BME280;15455;53.376;-6.262;2023-03-26T02:44:06;99943.69;;;6.16;100.00
28167;BME280;15455;53.376;-6.262;2023-03-26T02:47:27;99947.16;;;6.28;100.00
28167;BME280;15455;53.376;-6.262;2023-03-26T02:50:35;99956.69;;;6.35;100.00
28167;BME280;15455;53.376;-6.262;2023-03-26T02:53:40;99965.34;;;6.40;100.00
28167;BME280;15455;53.376;-6.262;2023-03-26T02:56:44;99966.19;;;6.40;100.00
28167;BME280;15455;53.376;-6.262;2023-03-26T02:59:38;99971.38;;;6.42;100.00
28167;BME280;15455;53.376;-6.262;2023-03-26T03:02:56;99980.91;;;6.48;100.00
28167;BME280;15455;53.376;-6.262;2023-03-26T03:05:55;99993.84;;;6.51;100.00
28167;BME280;15455;53.376;-6.262;2023-03-26T03:08:48;99985.22;;;6.52;100.00
28167;BME280;15455;53.376;-6.262;2023-03-26T03:11:34;99996.44;;;6.52;100.00
28167;BME280;15455;53.376;-6.262;2023-03-26T03:14:20;99998.19;;;6.50;100.00
28167;BME280;15455;53.376;-6.262;2023-03-26T03:17:05;99994.72;;;6.53;100.00
28167;BME280;15455;53.376;-6.262;2023-03-26T03:19:51;99993.00;;;6.56;100.00
28167;BME280;15455;53.376;-6.262;2023-03-26T03:22:36;99994.75;;;6.60;100.00
28167;BME280;15455;53.376;-6.262;2023-03-26T03:25:22;100000.78;;;6.66;100.00
28167;BME280;15455;53.376;-6.262;2023-03-26T03:28:08;99999.94;;;6.71;100.00
28167;BME280;15455;53.376;-6.262;2023-03-26T03:30:54;100008.59;;;6.75;100.00
28167;BME280;15455;53.376;-6.262;2023-03-26T03:33:49;100016.38;;;6.76;100.00
28167;BME280;15455;53.376;-6.262;2023-03-26T03:36:35;100012.94;;;6.77;100.00
28167;BME280;15455;53.376;-6.262;2023-03-26T03:39:43;100010.34;;;6.79;100.00
28167;BME280;15455;53.376;-6.262;2023-03-26T03:42:31;100011.19;;;6.80;100.00
28167;BME280;15455;53.376;-6.262;2023-03-26T03:45:19;100018.97;;;6.83;100.00
28167;BME280;15455;53.376;-6.262;2023-03-26T03:48:38;100022.44;;;6.86;100.00
28167;BME280;15455;53.376;-6.262;2023-03-26T03:51:25;100025.03;;;6.85;100.00
28167;BME280;15455;53.376;-6.262;2023-03-26T03:54:14;100028.50;;;6.85;100.00
28167;BME280;15455;53.376;-6.262;2023-03-26T03:57:03;100031.06;;;6.88;100.00
28167;BME280;15455;53.376;-6.262;2023-03-26T03:59:58;100031.06;;;6.91;100.00
28167;BME280;15455;53.376;-6.262;2023-03-26T04:02:48;100035.41;;;6.89;100.00
28167;BME280;15455;53.376;-6.262;2023-03-26T04:05:34;100034.56;;;6.92;100.00
28167;BME280;15455;53.376;-6.262;2023-03-26T04:08:21;100039.75;;;6.93;100.00
28167;BME280;15455;53.376;-6.262;2023-03-26T04:11:13;100038.84;;;6.94;100.00
28167;BME280;15455;53.376;-6.262;2023-03-26T04:14:25;100043.19;;;6.99;100.00
28167;BME280;15455;53.376;-6.262;2023-03-26T04:17:15;100045.78;;;7.02;100.00
28167;BME280;15455;53.376;-6.262;2023-03-26T04:20:03;100044.94;;;7.01;100.00
28167;BME280;15455;53.376;-6.262;2023-03-26T04:22:50;100059.63;;;7.04;100.00
28167;BME280;15455;53.376;-6.262;2023-03-26T04:25:50;100066.53;;;7.05;100.00
28167;BME280;15455;53.376;-6.262;2023-03-26T04:28:48;100073.47;;;7.04;100.00
28167;BME280;15455;53.376;-6.262;2023-03-26T04:31:41;100078.66;;;7.07;100.00
28167;BME280;15455;53.376;-6.262;2023-03-26T04:34:29;100080.41;;;7.08;100.00
28167;BME280;15455;53.376;-6.262;2023-03-26T04:37:41;100085.59;;;7.08;100.00
28167;BME280;15455;53.376;-6.262;2023-03-26T04:40:32;100087.31;;;7.09;100.00
28167;BME280;15455;53.376;-6.262;2023-03-26T04:43:29;100093.38;;;7.10;100.00
28167;BME280;15455;53.376;-6.262;2023-03-26T04:46:16;100094.25;;;7.13;100.00
28167;BME280;15455;53.376;-6.262;2023-03-26T04:49:18;100095.97;;;7.13;100.00
28167;BME280;15455;53.376;-6.262;2023-03-26T04:52:04;100115.00;;;7.15;100.00
28167;BME280;15455;53.376;-6.262;2023-03-26T04:55:20;100122.78;;;7.17;100.00
28167;BME280;15455;53.376;-6.262;2023-03-26T04:58:18;100132.28;;;7.19;100.00
28167;BME280;15455;53.376;-6.262;2023-03-26T05:01:13;100126.25;;;7.17;100.00
28167;BME280;15455;53.376;-6.262;2023-03-26T05:04:02;100136.63;;;7.19;100.00
28167;BME280;15455;53.376;-6.262;2023-03-26T05:06:48;100143.56;;;7.20;100.00
28167;BME280;15455;53.376;-6.262;2023-03-26T05:09:40;100144.41;;;7.16;100.00
28167;BME280;15455;53.376;-6.262;2023-03-26T05:12:31;100158.25;;;7.13;100.00
28167;BME280;15455;53.376;-6.262;2023-03-26T05:15:22;100160.84;;;7.13;100.00
28167;BME280;15455;53.376;-6.262;2023-03-26T05:18:07;100167.75;;;7.14;100.00
28167;BME280;15455;53.376;-6.262;2023-03-26T05:20:56;100176.41;;;7.16;100.00
28167;BME280;15455;53.376;-6.262;2023-03-26T05:23:43;100182.47;;;7.15;100.00
28167;BME280;15455;53.376;-6.262;2023-03-26T05:26:35;100178.16;;;7.14;100.00
28167;BME280;15455;53.376;-6.262;2023-03-26T05:29:21;100187.66;;;7.15;100.00
28167;BME280;15455;53.376;-6.262;2023-03-26T05:32:11;100189.38;;;7.13;100.00
28167;BME280;15455;53.376;-6.262;2023-03-26T05:34:57;100202.34;;;7.11;100.00
28167;BME280;15455;53.376;-6.262;2023-03-26T05:37:46;100211.00;;;7.12;100.00
28167;BME280;15455;53.376;-6.262;2023-03-26T05:40:37;100211.88;;;7.11;100.00
28167;BME280;15455;53.376;-6.262;2023-03-26T05:43:24;100216.19;;;7.09;100.00
28167;BME280;15455;53.376;-6.262;2023-03-26T05:46:19;100226.56;;;7.07;100.00
28167;BME280;15455;53.376;-6.262;2023-03-26T05:49:06;100226.53;;;7.04;100.00
28167;BME280;15455;53.376;-6.262;2023-03-26T05:51:53;100235.19;;;7.02;100.00
28167;BME280;15455;53.376;-6.262;2023-03-26T05:55:15;100243.84;;;7.01;100.00
28167;BME280;15455;53.376;-6.262;2023-03-26T05:58:21;100250.75;;;6.99;100.00
28167;BME280;15455;53.376;-6.262;2023-03-26T06:01:25;100253.31;;;6.97;100.00
28167;BME280;15455;53.376;-6.262;2023-03-26T06:04:29;100255.06;;;6.93;100.00
28167;BME280;15455;53.376;-6.262;2023-03-26T06:07:34;100269.75;;;6.94;100.00
28167;BME280;15455;53.376;-6.262;2023-03-26T06:10:40;100269.75;;;6.96;100.00
28167;BME280;15455;53.376;-6.262;2023-03-26T06:13:26;100268.88;;;6.92;100.00
28167;BME280;15455;53.376;-6.262;2023-03-26T06:16:14;100282.69;;;6.87;100.00
28167;BME280;15455;53.376;-6.262;2023-03-26T06:19:29;100290.44;;;6.81;100.00
28167;BME280;15455;53.376;-6.262;2023-03-26T06:22:22;100299.94;;;6.82;100.00
28167;BME280;15455;53.376;-6.262;2023-03-26T06:25:31;100301.69;;;6.84;100.00
28167;BME280;15455;53.376;-6.262;2023-03-26T06:28:46;100306.88;;;6.86;100.00
28167;BME280;15455;53.376;-6.262;2023-03-26T06:31:51;100317.22;;;6.81;100.00
28167;BME280;15455;53.376;-6.262;2023-03-26T06:34:40;100325.00;;;6.81;100.00
28167;BME280;15455;53.376;-6.262;2023-03-26T06:37:26;100333.69;;;6.83;100.00
28167;BME280;15455;53.376;-6.262;2023-03-26T06:40:18;100338.91;;;6.86;100.00
28167;BME280;15455;53.376;-6.262;2023-03-26T06:43:25;100351.84;;;6.85;100.00
28167;BME280;15455;53.376;-6.262;2023-03-26T06:46:26;100350.97;;;6.86;100.00
28167;BME280;15455;53.376;-6.262;2023-03-26T06:49:30;100351.88;;;6.86;100.00
28167;BME280;15455;53.376;-6.262;2023-03-26T06:52:45;100362.25;;;6.89;100.00
28167;BME280;15455;53.376;-6.262;2023-03-26T06:55:49;100373.47;;;6.90;100.00
28167;BME280;15455;53.376;-6.262;2023-03-26T06:58:40;100376.09;;;6.91;100.00
28167;BME280;15455;53.376;-6.262;2023-03-26T07:01:45;100380.44;;;6.92;100.00
28167;BME280;15455;53.376;-6.262;2023-03-26T07:04:49;100390.78;;;6.91;100.00
28167;BME280;15455;53.376;-6.262;2023-03-26T07:08:02;100394.25;;;6.90;100.00
28167;BME280;15455;53.376;-6.262;2023-03-26T07:11:06;100404.63;;;6.93;100.00
28167;BME280;15455;53.376;-6.262;2023-03-26T07:14:23;100414.19;;;6.97;100.00
28167;BME280;15455;53.376;-6.262;2023-03-26T07:17:31;100419.38;;;7.00;100.00
28167;BME280;15455;53.376;-6.262;2023-03-26T07:20:28;100426.34;;;7.04;100.00
28167;BME280;15455;53.376;-6.262;2023-03-26T07:23:14;100428.09;;;7.07;100.00
28167;BME280;15455;53.376;-6.262;2023-03-26T07:26:33;100446.25;;;7.07;100.00
28167;BME280;15455;53.376;-6.262;2023-03-26T07:29:51;100458.38;;;7.09;100.00
28167;BME280;15455;53.376;-6.262;2023-03-26T07:33:03;100461.84;;;7.13;100.00
28167;BME280;15455;53.376;-6.262;2023-03-26T07:36:16;100469.66;;;7.16;100.00
28167;BME280;15455;53.376;-6.262;2023-03-26T07:46:03;100486.03;;;7.06;100.00
28167;BME280;15455;53.376;-6.262;2023-03-26T07:49:12;100487.81;;;7.13;100.00
28167;BME280;15455;53.376;-6.262;2023-03-26T07:52:17;100486.94;;;7.12;100.00
28167;BME280;15455;53.376;-6.262;2023-03-26T07:55:15;100500.81;;;7.19;100.00
28167;BME280;15455;53.376;-6.262;2023-03-26T07:59:18;100511.28;;;7.28;100.00
28167;BME280;15455;53.376;-6.262;2023-03-26T08:05:31;100524.28;;;7.30;100.00
28167;BME280;15455;53.376;-6.262;2023-03-26T08:15:42;100545.00;;;7.22;100.00
28167;BME280;15455;53.376;-6.262;2023-03-26T08:18:34;100554.47;;;7.20;100.00
28167;BME280;15455;53.376;-6.262;2023-03-26T08:21:27;100561.41;;;7.20;100.00
28167;BME280;15455;53.376;-6.262;2023-03-26T08:24:20;100572.59;;;7.14;100.00
28167;BME280;15455;53.376;-6.262;2023-03-26T08:30:16;100594.31;;;7.22;100.00
28167;BME280;15455;53.376;-6.262;2023-03-26T08:33:16;100606.44;;;7.26;100.00
28167;BME280;15455;53.376;-6.262;2023-03-26T08:36:03;100605.59;;;7.27;100.00
28167;BME280;15455;53.376;-6.262;2023-03-26T08:38:48;100608.06;;;7.13;100.00
28167;BME280;15455;53.376;-6.262;2023-03-26T08:50:56;100646.78;;;6.92;100.00
28167;BME280;15455;53.376;-6.262;2023-03-26T09:03:52;100684.41;;;7.34;100.00
28167;BME280;15455;53.376;-6.262;2023-03-26T09:22:14;100704.47;;;7.54;100.00
28167;BME280;15455;53.376;-6.262;2023-03-26T09:28:17;100740.72;;;7.41;100.00
28167;BME280;15455;53.376;-6.262;2023-03-26T09:59:56;100822.91;;;7.39;100.00
28167;BME280;15455;53.376;-6.262;2023-03-26T10:03:09;100847.03;;;7.30;100.00
28167;BME280;15455;53.376;-6.262;2023-03-26T10:09:42;100870.38;;;7.29;100.00
28167;BME280;15455;53.376;-6.262;2023-03-26T10:12:32;100880.75;;;7.27;100.00
28167;BME280;15455;53.376;-6.262;2023-03-26T10:15:31;100889.50;;;7.33;100.00
28167;BME280;15455;53.376;-6.262;2023-03-26T10:21:43;100902.44;;;7.29;100.00
28167;BME280;15455;53.376;-6.262;2023-03-26T10:37:23;100944.84;;;7.32;100.00
28167;BME280;15455;53.376;-6.262;2023-03-26T10:40:36;100951.00;;;7.37;100.00
28167;BME280;15455;53.376;-6.262;2023-03-26T10:53:26;100966.25;;;7.15;100.00
28167;BME280;15455;53.376;-6.262;2023-03-26T10:56:45;100980.06;;;7.12;100.00
28167;BME280;15455;53.376;-6.262;2023-03-26T10:59:31;100987.91;;;7.17;100.00
28167;BME280;15455;53.376;-6.262;2023-03-26T11:02:29;100993.00;;;7.11;100.00
28167;BME280;15455;53.376;-6.262;2023-03-26T11:08:32;101004.81;;;6.92;100.00
28167;BME280;15455;53.376;-6.262;2023-03-26T11:14:56;101022.06;;;6.90;100.00
28167;BME280;15455;53.376;-6.262;2023-03-26T11:17:47;101033.38;;;6.93;100.00
28167;BME280;15455;53.376;-6.262;2023-03-26T11:20:43;101041.22;;;6.97;100.00
28167;BME280;15455;53.376;-6.262;2023-03-26T11:26:30;101042.03;;;6.94;100.00
28167;BME280;15455;53.376;-6.262;2023-03-26T11:32:38;101061.53;;;7.21;100.00
28167;BME280;15455;53.376;-6.262;2023-03-26T11:35:29;101053.81;;;7.27;100.00
28167;BME280;15455;53.376;-6.262;2023-03-26T11:38:57;101067.91;;;7.41;100.00
28167;BME280;15455;53.376;-6.262;2023-03-26T11:41:48;101059.13;;;7.35;100.00
28167;BME280;15455;53.376;-6.262;2023-03-26T11:44:57;101059.31;;;7.45;100.00
28167;BME280;15455;53.376;-6.262;2023-03-26T11:47:51;101063.94;;;7.67;100.00
28167;BME280;15455;53.376;-6.262;2023-03-26T11:50:43;101069.13;;;7.65;100.00
28167;BME280;15455;53.376;-6.262;2023-03-26T11:53:32;101069.88;;;7.59;100.00
28167;BME280;15455;53.376;-6.262;2023-03-26T11:56:26;101077.19;;;7.85;100.00
28167;BME280;15455;53.376;-6.262;2023-03-26T11:59:18;101071.84;;;7.73;100.00
28167;BME280;15455;53.376;-6.262;2023-03-26T12:07:59;101104.28;;;8.01;100.00
28167;BME280;15455;53.376;-6.262;2023-03-26T12:10:58;101111.78;;;7.81;100.00
28167;BME280;15455;53.376;-6.262;2023-03-26T12:13:56;101119.31;;;7.64;100.00
28167;BME280;15455;53.376;-6.262;2023-03-26T12:17:02;101126.91;;;7.50;100.00
28167;BME280;15455;53.376;-6.262;2023-03-26T12:19:47;101132.97;;;7.52;100.00
28167;BME280;15455;53.376;-6.262;2023-03-26T12:22:38;101138.31;;;7.58;100.00
28167;BME280;15455;53.376;-6.262;2023-03-26T12:25:30;101147.28;;;7.80;100.00
28167;BME280;15455;53.376;-6.262;2023-03-26T12:28:18;101148.19;;;7.84;100.00
28167;BME280;15455;53.376;-6.262;2023-03-26T12:31:04;101158.53;;;7.79;100.00
28167;BME280;15455;53.376;-6.262;2023-03-26T12:34:13;101150.78;;;7.84;100.00
28167;BME280;15455;53.376;-6.262;2023-03-26T12:37:01;101145.69;;;7.87;100.00
28167;BME280;15455;53.376;-6.262;2023-03-26T12:39:47;101155.91;;;7.78;100.00
28167;BME280;15455;53.376;-6.262;2023-03-26T12:42:58;101160.38;;;7.88;100.00
28167;BME280;15455;53.376;-6.262;2023-03-26T12:46:25;101172.72;;;8.02;100.00
28167;BME280;15455;53.376;-6.262;2023-03-26T12:49:31;101167.50;;;8.02;100.00
28167;BME280;15455;53.376;-6.262;2023-03-26T12:52:34;101182.97;;;7.92;100.00
28167;BME280;15455;53.376;-6.262;2023-03-26T12:55:41;101200.25;;;7.87;100.00
28167;BME280;15455;53.376;-6.262;2023-03-26T13:07:52;101202.72;;;7.81;100.00
28167;BME280;15455;53.376;-6.262;2023-03-26T13:10:56;101203.78;;;7.94;100.00
28167;BME280;15455;53.376;-6.262;2023-03-26T13:14:10;101215.38;;;8.16;100.00
28167;BME280;15455;53.376;-6.262;2023-03-26T13:20:12;101216.47;;;8.30;100.00
28167;BME280;15455;53.376;-6.262;2023-03-26T13:23:19;101229.97;;;8.64;100.00
28167;BME280;15455;53.376;-6.262;2023-03-26T13:36:19;101238.13;;;8.92;100.00
28167;BME280;15455;53.376;-6.262;2023-03-26T13:39:40;101232.97;;;8.95;100.00
28167;BME280;15455;53.376;-6.262;2023-03-26T13:48:53;101252.34;;;9.19;100.00
28167;BME280;15455;53.376;-6.262;2023-03-26T13:57:57;101268.19;;;9.37;100.00
28167;BME280;15455;53.376;-6.262;2023-03-26T14:01:05;101277.50;;;9.20;100.00
28167;BME280;15455;53.376;-6.262;2023-03-26T14:09:52;101280.84;;;9.07;100.00
28167;BME280;15455;53.376;-6.262;2023-03-26T14:15:40;101274.22;;;9.33;100.00
28167;BME280;15455;53.376;-6.262;2023-03-26T14:24:43;101281.25;;;10.36;100.00
28167;BME280;15455;53.376;-6.262;2023-03-26T14:31:47;101287.16;;;10.18;100.00
28167;BME280;15455;53.376;-6.262;2023-03-26T14:34:19;101298.38;;;10.04;100.00
28167;BME280;15455;53.376;-6.262;2023-03-26T14:40:28;101303.69;;;9.31;100.00
28167;BME280;15455;53.376;-6.262;2023-03-26T14:47:12;101317.72;;;9.42;100.00
28167;BME280;15455;53.376;-6.262;2023-03-26T14:53:17;101329.81;;;9.35;100.00
28167;BME280;15455;53.376;-6.262;2023-03-26T15:12:25;101367.47;;;9.62;100.00
28167;BME280;15455;53.376;-6.262;2023-03-26T15:15:37;101365.94;;;9.81;100.00
28167;BME280;15455;53.376;-6.262;2023-03-26T15:40:35;101400.41;;;9.59;100.00
28167;BME280;15455;53.376;-6.262;2023-03-26T15:47:41;101415.56;;;9.90;100.00
28167;BME280;15455;53.376;-6.262;2023-03-26T15:54:05;101423.91;;;9.62;100.00
28167;BME280;15455;53.376;-6.262;2023-03-26T15:57:06;101416.97;;;9.62;100.00
28167;BME280;15455;53.376;-6.262;2023-03-26T16:00:20;101423.88;;;9.60;100.00
28167;BME280;15455;53.376;-6.262;2023-03-26T16:03:18;101426.19;;;9.35;100.00
28167;BME280;15455;53.376;-6.262;2023-03-26T16:06:29;101426.09;;;9.29;100.00
28167;BME280;15455;53.376;-6.262;2023-03-26T16:22:12;101459.81;;;8.63;100.00
28167;BME280;15455;53.376;-6.262;2023-03-26T16:25:32;101473.41;;;8.47;100.00
28167;BME280;15455;53.376;-6.262;2023-03-26T16:28:29;101475.97;;;8.45;100.00
28167;BME280;15455;53.376;-6.262;2023-03-26T16:34:28;101485.44;;;8.43;100.00
28167;BME280;15455;53.376;-6.262;2023-03-26T16:40:29;101498.97;;;8.24;100.00
28167;BME280;15455;53.376;-6.262;2023-03-26T16:55:19;101532.31;;;8.00;100.00
28167;BME280;15455;53.376;-6.262;2023-03-26T16:58:23;101539.03;;;7.91;100.00
28167;BME280;15455;53.376;-6.262;2023-03-26T17:04:18;101543.09;;;7.79;100.00
28167;BME280;15455;53.376;-6.262;2023-03-26T17:07:29;101547.41;;;7.77;100.00
28167;BME280;15455;53.376;-6.262;2023-03-26T17:10:36;101563.00;;;7.77;100.00
28167;BME280;15455;53.376;-6.262;2023-03-26T17:13:44;101571.69;;;7.79;100.00
28167;BME280;15455;53.376;-6.262;2023-03-26T17:17:02;101584.59;;;7.75;100.00
28167;BME280;15455;53.376;-6.262;2023-03-26T17:20:08;101588.78;;;7.70;100.00
28167;BME280;15455;53.376;-6.262;2023-03-26T17:23:24;101586.06;;;7.63;100.00
28167;BME280;15455;53.376;-6.262;2023-03-26T17:26:20;101604.94;;;7.56;100.00
28167;BME280;15455;53.376;-6.262;2023-03-26T17:29:30;101617.94;;;7.56;100.00
28167;BME280;15455;53.376;-6.262;2023-03-26T17:32:17;101610.06;;;7.53;100.00
28167;BME280;15455;53.376;-6.262;2023-03-26T17:35:07;101623.06;;;7.53;100.00
28167;BME280;15455;53.376;-6.262;2023-03-26T17:37:53;101636.84;;;7.51;100.00
28167;BME280;15455;53.376;-6.262;2023-03-26T17:43:46;101629.72;;;7.43;100.00
28167;BME280;15455;53.376;-6.262;2023-03-26T17:46:41;101639.31;;;7.46;100.00
28167;BME280;15455;53.376;-6.262;2023-03-26T17:49:33;101644.31;;;7.37;100.00
28167;BME280;15455;53.376;-6.262;2023-03-26T17:52:24;101647.66;;;7.33;100.00
28167;BME280;15455;53.376;-6.262;2023-03-26T17:55:15;101644.28;;;7.35;100.00
28167;BME280;15455;53.376;-6.262;2023-03-26T17:58:28;101648.66;;;7.39;100.00
28167;BME280;15455;53.376;-6.262;2023-03-26T18:01:42;101655.56;;;7.37;100.00
28167;BME280;15455;53.376;-6.262;2023-03-26T18:04:38;101658.94;;;7.35;100.00
28167;BME280;15455;53.376;-6.262;2023-03-26T18:11:02;101661.34;;;7.27;100.00
28167;BME280;15455;53.376;-6.262;2023-03-26T18:16:48;101667.22;;;7.20;100.00
28167;BME280;15455;53.376;-6.262;2023-03-26T18:19:53;101667.13;;;7.15;100.00
28167;BME280;15455;53.376;-6.262;2023-03-26T18:22:38;101667.81;;;7.09;100.00
28167;BME280;15455;53.376;-6.262;2023-03-26T18:25:29;101677.34;;;7.10;100.00
28167;BME280;15455;53.376;-6.262;2023-03-26T18:28:27;101672.97;;;7.08;100.00
28167;BME280;15455;53.376;-6.262;2023-03-26T18:31:17;101668.63;;;7.07;100.00
28167;BME280;15455;53.376;-6.262;2023-03-26T18:34:12;101676.38;;;7.05;100.00
28167;BME280;15455;53.376;-6.262;2023-03-26T18:42:57;101690.75;;;6.94;100.00
28167;BME280;15455;53.376;-6.262;2023-03-26T18:45:44;101699.22;;;6.87;100.00
28167;BME280;15455;53.376;-6.262;2023-03-26T18:48:32;101706.97;;;6.85;100.00
28167;BME280;15455;53.376;-6.262;2023-03-26T18:51:18;101717.28;;;6.84;100.00
28167;BME280;15455;53.376;-6.262;2023-03-26T18:54:13;101719.84;;;6.82;100.00
28167;BME280;15455;53.376;-6.262;2023-03-26T18:57:10;101725.00;;;6.81;100.00
28167;BME280;15455;53.376;-6.262;2023-03-26T19:00:14;101724.91;;;6.77;100.00
28167;BME280;15455;53.376;-6.262;2023-03-26T19:03:05;101725.69;;;6.75;100.00
28167;BME280;15455;53.376;-6.262;2023-03-26T19:05:53;101731.72;;;6.74;100.00
28167;BME280;15455;53.376;-6.262;2023-03-26T19:08:44;101734.19;;;6.69;100.00
28167;BME280;15455;53.376;-6.262;2023-03-26T19:11:31;101742.59;;;6.62;100.00
28167;BME280;15455;53.376;-6.262;2023-03-26T19:14:19;101746.72;;;6.55;100.00
28167;BME280;15455;53.376;-6.262;2023-03-26T19:17:04;101753.47;;;6.49;100.00
28167;BME280;15455;53.376;-6.262;2023-03-26T19:19:51;101761.94;;;6.43;100.00
28167;BME280;15455;53.376;-6.262;2023-03-26T19:22:41;101766.75;;;6.32;100.00
28167;BME280;15455;53.376;-6.262;2023-03-26T19:25:42;101767.53;;;6.30;100.00
28167;BME280;15455;53.376;-6.262;2023-03-26T19:37:02;101778.69;;;6.00;100.00
28167;BME280;15455;53.376;-6.262;2023-03-26T19:39:51;101783.63;;;5.94;100.00
28167;BME280;15455;53.376;-6.262;2023-03-26T19:42:36;101786.44;;;5.74;100.00
28167;BME280;15455;53.376;-6.262;2023-03-26T19:45:32;101794.63;;;5.61;100.00
28167;BME280;15455;53.376;-6.262;2023-03-26T19:48:20;101802.09;;;5.53;100.00
28167;BME280;15455;53.376;-6.262;2023-03-26T19:51:35;101803.38;;;5.40;100.00
28167;BME280;15455;53.376;-6.262;2023-03-26T19:54:21;101815.78;;;5.25;100.00
28167;BME280;15455;53.376;-6.262;2023-03-26T19:57:07;101812.88;;;5.17;100.00
28167;BME280;15455;53.376;-6.262;2023-03-26T19:59:53;101806.25;;;5.01;100.00
28167;BME280;15455;53.376;-6.262;2023-03-26T20:02:41;101812.47;;;4.82;100.00
28167;BME280;15455;53.376;-6.262;2023-03-26T20:05:30;101818.69;;;4.64;100.00
28167;BME280;15455;53.376;-6.262;2023-03-26T20:08:17;101813.59;;;4.45;100.00
28167;BME280;15455;53.376;-6.262;2023-03-26T20:11:04;101820.69;;;4.28;100.00
28167;BME280;15455;53.376;-6.262;2023-03-26T20:13:49;101816.19;;;4.03;100.00
28167;BME280;15455;53.376;-6.262;2023-03-26T20:16:36;101825.81;;;3.86;100.00
28167;BME280;15455;53.376;-6.262;2023-03-26T20:19:22;101831.28;;;3.72;100.00
28167;BME280;15455;53.376;-6.262;2023-03-26T20:22:16;101829.59;;;3.53;100.00
28167;BME280;15455;53.376;-6.262;2023-03-26T20:25:30;101837.13;;;3.29;100.00
28167;BME280;15455;53.376;-6.262;2023-03-26T20:28:17;101852.63;;;3.09;100.00
28167;BME280;15455;53.376;-6.262;2023-03-26T20:31:03;101852.56;;;2.90;100.00
28167;BME280;15455;53.376;-6.262;2023-03-26T20:33:50;101859.94;;;2.82;100.00
28167;BME280;15455;53.376;-6.262;2023-03-26T20:36:36;101861.41;;;2.77;100.00